createdAt,value
2022-11-20T00:01:29.661Z,94.40
2022-11-20T00:04:01.382Z,94.58
2022-11-20T00:06:33.152Z,94.30
2022-11-20T00:09:06.127Z,94.10
2022-11-20T00:11:37.562Z,94.61
2022-11-20T00:14:10.569Z,94.29
2022-11-20T00:16:41.848Z,94.52
2022-11-20T00:19:13.135Z,94.06
2022-11-20T00:21:44.389Z,94.17
2022-11-20T00:24:15.859Z,94.42
2022-11-20T00:26:47.147Z,93.97
2022-11-20T00:29:18.669Z,94.15
2022-11-20T00:31:50.069Z,94.56
2022-11-20T00:34:21.377Z,94.14
2022-11-20T00:36:52.639Z,94.48
2022-11-20T00:39:24.073Z,94.06
2022-11-20T00:41:55.473Z,94.32
2022-11-20T00:44:26.791Z,94.49
2022-11-20T00:46:58.089Z,94.26
2022-11-20T00:49:29.482Z,94.29
2022-11-20T00:52:00.829Z,94.29
2022-11-20T00:54:32.099Z,94.65
2022-11-20T00:57:03.467Z,94.47
2022-11-20T00:59:34.721Z,94.45
2022-11-20T01:02:06.021Z,94.16
2022-11-20T01:04:37.272Z,94.36
2022-11-20T01:07:08.674Z,94.08
2022-11-20T01:09:40.036Z,94.06
2022-11-20T01:12:11.307Z,94.36
2022-11-20T01:14:42.559Z,94.13
2022-11-20T01:17:15.949Z,94.35
2022-11-20T01:19:51.136Z,94.14
2022-11-20T01:22:22.406Z,94.32
2022-11-20T01:24:53.761Z,94.68
2022-11-20T01:27:25.039Z,93.76
2022-11-20T01:30:00.926Z,94.40
2022-11-20T01:32:32.597Z,94.02
2022-11-20T01:35:04.182Z,94.33
2022-11-20T01:37:35.428Z,94.16
2022-11-20T01:40:07.139Z,94.56
2022-11-20T01:43:17.170Z,94.70
2022-11-20T01:45:57.124Z,93.94
2022-11-20T01:48:39.007Z,93.72
2022-11-20T01:51:35.833Z,94.12
2022-11-20T01:54:13.973Z,93.59
2022-11-20T01:56:47.848Z,94.29
2022-11-20T01:59:21.870Z,94.11
2022-11-20T02:01:54.175Z,94.32
2022-11-20T02:04:26.405Z,93.93
2022-11-20T02:07:01.000Z,93.89
2022-11-20T02:09:32.629Z,94.44
2022-11-20T02:12:04.435Z,94.12
2022-11-20T02:14:35.796Z,94.49
2022-11-20T02:17:07.155Z,93.91
2022-11-20T02:19:38.431Z,93.84
2022-11-20T02:22:23.096Z,93.73
2022-11-20T02:24:54.369Z,94.22
2022-11-20T02:27:27.386Z,94.25
2022-11-20T02:30:02.893Z,94.01
2022-11-20T02:32:37.801Z,94.57
2022-11-20T02:35:19.453Z,94.42
2022-11-20T02:37:55.661Z,94.46
2022-11-20T02:40:26.998Z,94.41
2022-11-20T02:42:58.402Z,94.23
2022-11-20T02:45:29.759Z,93.96
2022-11-20T02:48:01.176Z,94.35
2022-11-20T02:50:32.427Z,94.51
2022-11-20T02:53:03.687Z,94.20
2022-11-20T02:55:35.143Z,94.71
2022-11-20T02:58:06.528Z,94.52
2022-11-20T03:00:37.791Z,94.30
2022-11-20T03:03:09.103Z,94.67
2022-11-20T03:05:40.356Z,94.55
2022-11-20T03:08:11.655Z,94.69
2022-11-20T03:10:42.919Z,94.24
2022-11-20T03:13:14.415Z,94.24
2022-11-20T03:15:45.722Z,95.00
2022-11-20T03:18:16.983Z,94.57
2022-11-20T03:20:48.570Z,94.26
2022-11-20T03:23:19.835Z,94.44
2022-11-20T03:25:51.120Z,94.34
2022-11-20T03:28:22.388Z,94.80
2022-11-20T03:30:53.746Z,94.79
2022-11-20T03:33:24.988Z,94.20
2022-11-20T03:36:02.154Z,94.40
2022-11-20T03:38:33.703Z,95.03
2022-11-20T03:41:18.057Z,95.01
2022-11-20T03:43:55.037Z,95.02
2022-11-20T03:46:27.677Z,94.54
2022-11-20T03:48:59.123Z,94.46
2022-11-20T03:51:35.772Z,94.42
2022-11-20T03:54:08.634Z,94.84
2022-11-20T03:56:40.471Z,94.22
2022-11-20T03:59:12.032Z,94.25
2022-11-20T04:01:48.278Z,94.66
2022-11-20T04:04:20.765Z,94.72
2022-11-20T04:06:52.137Z,94.51
2022-11-20T04:09:23.825Z,94.85
2022-11-20T04:11:55.220Z,94.29
2022-11-20T04:14:26.577Z,94.35
2022-11-20T04:16:57.921Z,94.96
2022-11-20T04:19:29.285Z,94.49
2022-11-20T04:22:00.664Z,94.85
2022-11-20T04:24:31.907Z,94.57
2022-11-20T04:27:03.224Z,94.92
2022-11-20T04:29:34.536Z,94.35
2022-11-20T04:32:05.864Z,94.17
2022-11-20T04:34:37.197Z,94.48
2022-11-20T04:37:08.449Z,94.07
2022-11-20T04:39:39.729Z,94.09
2022-11-20T04:42:29.507Z,94.53
2022-11-20T04:45:00.843Z,94.05
2022-11-20T04:47:32.137Z,94.36
2022-11-20T04:50:03.688Z,94.53
2022-11-20T04:52:34.984Z,94.67
2022-11-20T04:55:07.011Z,94.47
2022-11-20T04:57:38.278Z,94.20
2022-11-20T05:00:10.148Z,95.05
2022-11-20T05:02:41.642Z,94.77
2022-11-20T05:05:12.960Z,94.53
2022-11-20T05:07:44.245Z,94.67
2022-11-20T05:10:15.946Z,94.66
2022-11-20T05:12:47.200Z,95.01
2022-11-20T05:15:18.605Z,94.41
2022-11-20T05:17:51.115Z,94.64
2022-11-20T05:20:22.420Z,94.39
2022-11-20T05:22:57.627Z,94.73
2022-11-20T05:25:28.904Z,94.34
2022-11-20T05:28:00.172Z,94.41
2022-11-20T05:30:31.422Z,95.13
2022-11-20T05:33:02.817Z,95.01
2022-11-20T05:35:34.077Z,95.00
2022-11-20T05:38:05.325Z,94.52
2022-11-20T05:40:36.642Z,94.68
2022-11-20T05:43:07.930Z,95.05
2022-11-20T05:45:39.177Z,95.09
2022-11-20T05:48:10.468Z,94.70
2022-11-20T05:50:41.784Z,94.88
2022-11-20T05:53:13.052Z,95.38
2022-11-20T05:55:44.340Z,95.40
2022-11-20T05:58:15.667Z,95.22
2022-11-20T06:00:46.912Z,95.01
2022-11-20T06:03:18.228Z,94.78
2022-11-20T06:05:49.467Z,95.25
2022-11-20T06:08:20.871Z,95.40
2022-11-20T06:10:52.119Z,94.80
2022-11-20T06:13:23.812Z,94.87
2022-11-20T06:15:55.092Z,95.06
2022-11-20T06:18:29.092Z,94.94
2022-11-20T06:21:06.673Z,95.08
2022-11-20T06:23:38.350Z,94.98
2022-11-20T06:26:18.948Z,95.21
2022-11-20T06:28:51.130Z,95.20
2022-11-20T06:31:24.336Z,94.84
2022-11-20T06:33:55.631Z,95.00
2022-11-20T06:36:26.973Z,95.22
2022-11-20T06:38:58.245Z,94.93
2022-11-20T06:41:29.752Z,95.06
2022-11-20T06:44:01.006Z,95.47
2022-11-20T06:46:32.567Z,94.81
2022-11-20T06:49:04.020Z,95.15
2022-11-20T06:51:37.344Z,94.87
2022-11-20T06:54:08.672Z,95.42
2022-11-20T06:56:40.222Z,95.24
2022-11-20T06:59:11.802Z,95.16
2022-11-20T07:01:43.092Z,94.71
2022-11-20T07:04:14.355Z,95.48
2022-11-20T07:06:46.901Z,95.01
2022-11-20T07:09:18.201Z,94.81
2022-11-20T07:11:49.536Z,94.97
2022-11-20T07:14:20.920Z,94.81
2022-11-20T07:16:52.196Z,94.92
2022-11-20T07:19:23.789Z,94.82
2022-11-20T07:21:55.231Z,94.81
2022-11-20T07:24:26.482Z,95.04
2022-11-20T07:26:57.732Z,95.05
2022-11-20T07:29:28.997Z,94.92
2022-11-20T07:32:00.339Z,94.70
2022-11-20T07:34:31.574Z,95.17
2022-11-20T07:37:07.434Z,94.85
2022-11-20T07:39:41.410Z,94.81
2022-11-20T07:42:13.149Z,95.23
2022-11-20T07:44:44.427Z,94.73
2022-11-20T07:47:15.682Z,95.79
2022-11-20T07:49:46.919Z,95.07
2022-11-20T07:52:18.172Z,95.55
2022-11-20T07:54:49.467Z,95.07
2022-11-20T07:57:25.583Z,94.73
2022-11-20T07:59:59.807Z,95.04
2022-11-20T08:02:31.042Z,95.01
2022-11-20T08:05:02.315Z,94.81
2022-11-20T08:07:41.994Z,94.67
2022-11-20T08:10:16.135Z,94.57
2022-11-20T08:13:10.901Z,94.57
2022-11-20T08:15:42.195Z,94.24
2022-11-20T08:18:30.467Z,94.75
2022-11-20T08:21:04.621Z,94.01
2022-11-20T08:23:35.991Z,94.36
2022-11-20T08:26:07.284Z,94.22
2022-11-20T08:28:38.537Z,94.74
2022-11-20T08:31:10.599Z,94.81
2022-11-20T08:33:42.070Z,94.48
2022-11-20T08:36:13.452Z,94.40
2022-11-20T08:38:49.292Z,94.84
2022-11-20T08:41:24.743Z,94.83
2022-11-20T08:44:07.647Z,95.05
2022-11-20T08:46:41.895Z,94.98
2022-11-20T08:49:16.076Z,95.23
2022-11-20T08:51:49.247Z,95.50
2022-11-20T08:54:22.759Z,95.68
2022-11-20T08:56:54.134Z,95.77
2022-11-20T08:59:50.765Z,95.41
2022-11-20T09:02:16.647Z,95.34
2022-11-20T09:04:48.189Z,95.20
2022-11-20T09:07:20.161Z,95.09
2022-11-20T09:10:16.566Z,96.09
2022-11-20T09:12:42.790Z,95.56
2022-11-20T09:15:14.172Z,95.15
2022-11-20T09:17:53.552Z,95.88
2022-11-20T09:20:26.026Z,95.39
2022-11-20T09:22:58.547Z,95.65
2022-11-20T09:25:29.871Z,96.14
2022-11-20T09:28:01.130Z,96.21
2022-11-20T09:30:32.755Z,96.12
2022-11-20T09:33:05.600Z,96.10
2022-11-20T09:35:36.911Z,96.31
2022-11-20T09:38:08.328Z,95.67
2022-11-20T09:40:45.380Z,96.08
2022-11-20T09:43:26.946Z,96.14
2022-11-20T09:46:29.293Z,96.26
2022-11-20T09:49:13.230Z,96.04
2022-11-20T09:51:57.928Z,96.74
2022-11-20T09:54:36.570Z,96.83
2022-11-20T09:57:19.826Z,96.46
2022-11-20T09:59:55.970Z,96.19
2022-11-20T10:02:39.886Z,96.07
2022-11-20T10:05:25.868Z,97.01
2022-11-20T10:08:18.652Z,96.74
2022-11-20T10:11:31.494Z,95.89
2022-11-20T10:14:08.908Z,96.80
2022-11-20T10:17:18.132Z,97.00
2022-11-20T10:20:24.928Z,96.70
2022-11-20T10:23:05.633Z,96.56
2022-11-20T10:25:40.330Z,97.20
2022-11-20T10:28:18.056Z,96.50
2022-11-20T10:31:01.984Z,96.46
2022-11-20T10:34:04.897Z,97.18
2022-11-20T10:36:48.194Z,96.42
2022-11-20T10:39:22.821Z,97.15
2022-11-20T10:41:54.669Z,96.37
2022-11-20T10:44:52.490Z,96.95
2022-11-20T10:47:28.597Z,96.58
2022-11-20T10:50:06.688Z,96.34
2022-11-20T10:52:56.988Z,96.24
2022-11-20T10:55:46.457Z,96.42
2022-11-20T10:58:37.281Z,96.54
2022-11-20T11:01:18.299Z,96.20
2022-11-20T11:03:52.644Z,96.25
2022-11-20T11:06:47.931Z,96.29
2022-11-20T11:09:33.509Z,96.41
2022-11-20T11:12:09.503Z,96.33
2022-11-20T11:14:47.699Z,96.31
2022-11-20T11:17:30.267Z,96.95
2022-11-20T11:20:18.027Z,96.96
2022-11-20T11:22:52.424Z,96.47
2022-11-20T11:25:37.659Z,96.68
2022-11-20T11:28:22.270Z,96.99
2022-11-20T11:30:54.108Z,96.71
2022-11-20T11:33:28.270Z,96.94
2022-11-20T11:36:02.535Z,97.11
2022-11-20T11:38:37.782Z,97.03
2022-11-20T11:41:24.831Z,96.40
2022-11-20T11:44:17.346Z,96.64
2022-11-20T11:46:57.204Z,96.44
2022-11-20T11:49:28.459Z,96.87
2022-11-20T11:52:14.843Z,96.84
2022-11-20T11:54:48.822Z,97.01
2022-11-20T11:57:41.824Z,96.37
2022-11-20T12:00:16.254Z,96.79
2022-11-20T12:02:49.243Z,96.10
2022-11-20T12:05:41.072Z,96.72
2022-11-20T12:08:26.252Z,96.57
2022-11-20T12:11:04.235Z,96.50
2022-11-20T12:13:35.484Z,95.85
2022-11-20T12:16:13.456Z,95.92
2022-11-20T12:18:46.922Z,95.63
2022-11-20T12:21:24.194Z,96.18
2022-11-20T12:24:23.215Z,95.41
2022-11-20T12:27:24.916Z,95.45
2022-11-20T12:30:16.432Z,95.54
2022-11-20T12:33:17.908Z,96.42
2022-11-20T12:36:02.222Z,96.18
2022-11-20T12:38:46.902Z,96.57
2022-11-20T12:42:07.680Z,95.32
2022-11-20T12:45:06.584Z,95.40
2022-11-20T12:48:08.348Z,95.61
2022-11-20T12:51:19.791Z,95.66
2022-11-20T12:54:11.341Z,95.95
2022-11-20T12:57:04.047Z,94.82
2022-11-20T12:59:47.517Z,95.69
2022-11-20T13:02:56.107Z,95.47
2022-11-20T13:05:42.628Z,95.86
2022-11-20T13:08:24.226Z,95.53
2022-11-20T13:11:15.613Z,94.96
2022-11-20T13:14:08.408Z,95.04
2022-11-20T13:17:06.466Z,94.92
2022-11-20T13:19:38.272Z,95.64
2022-11-20T13:22:10.355Z,95.76
2022-11-20T13:24:51.824Z,95.19
2022-11-20T13:27:24.685Z,95.91
2022-11-20T13:30:18.008Z,95.41
2022-11-20T13:32:55.798Z,95.29
2022-11-20T13:35:30.462Z,95.27
2022-11-20T13:38:05.539Z,94.80
2022-11-20T13:40:39.837Z,94.38
2022-11-20T13:43:24.220Z,95.15
2022-11-20T13:46:01.424Z,94.14
2022-11-20T13:48:43.438Z,95.09
2022-11-20T13:51:31.475Z,94.35
2022-11-20T13:54:27.728Z,94.64
2022-11-20T13:57:35.237Z,95.28
2022-11-20T14:00:17.467Z,94.51
2022-11-20T14:03:07.088Z,94.94
2022-11-20T14:05:41.538Z,94.42
2022-11-20T14:08:28.818Z,94.13
2022-11-20T14:11:25.256Z,93.13
2022-11-20T14:14:05.803Z,93.94
2022-11-20T14:16:37.890Z,93.80
2022-11-20T14:19:36.327Z,93.17
2022-11-20T14:22:20.994Z,92.94
2022-11-20T14:25:23.969Z,93.12
2022-11-20T14:28:01.552Z,93.18
2022-11-20T14:30:45.180Z,93.51
2022-11-20T14:33:17.350Z,93.09
2022-11-20T14:35:51.483Z,92.92
2022-11-20T14:38:27.081Z,93.48
2022-11-20T14:41:10.125Z,92.61
2022-11-20T14:43:47.016Z,92.97
2022-11-20T14:46:18.569Z,92.24
2022-11-20T14:49:02.131Z,92.40
2022-11-20T14:51:37.628Z,92.30
2022-11-20T14:54:19.696Z,91.88
2022-11-20T14:57:04.614Z,92.46
2022-11-20T14:59:36.112Z,91.78
2022-11-20T15:02:12.714Z,92.83
2022-11-20T15:04:52.664Z,92.21
2022-11-20T15:07:26.459Z,92.24
2022-11-20T15:10:10.177Z,92.27
2022-11-20T15:12:48.859Z,91.45
2022-11-20T15:15:26.442Z,91.98
2022-11-20T15:17:58.899Z,92.61
2022-11-20T15:20:33.156Z,91.63
2022-11-20T15:23:15.214Z,92.10
2022-11-20T15:25:48.522Z,92.55
2022-11-20T15:28:26.654Z,91.86
2022-11-20T15:30:58.071Z,92.09
2022-11-20T15:33:30.050Z,92.01
2022-11-20T15:36:01.357Z,91.83
2022-11-20T15:38:32.728Z,91.05
2022-11-20T15:41:04.233Z,91.75
2022-11-20T15:43:35.659Z,91.50
2022-11-20T15:46:12.454Z,90.87
2022-11-20T15:48:48.258Z,91.10
2022-11-20T15:51:28.805Z,91.18
2022-11-20T15:54:00.152Z,90.68
2022-11-20T15:56:33.994Z,91.11
2022-11-20T15:59:05.318Z,91.17
2022-11-20T16:01:36.876Z,91.08
2022-11-20T16:04:17.411Z,91.96
2022-11-20T16:06:48.785Z,91.51
2022-11-20T16:09:20.068Z,91.94
2022-11-20T16:11:51.343Z,91.50
2022-11-20T16:14:41.101Z,91.57
2022-11-20T16:17:13.368Z,92.17
2022-11-20T16:19:44.625Z,91.62
2022-11-20T16:22:15.863Z,91.63
2022-11-20T16:24:47.248Z,91.36
2022-11-20T16:27:18.550Z,91.61
2022-11-20T16:29:49.796Z,91.64
2022-11-20T16:32:21.259Z,91.89
2022-11-20T16:34:52.599Z,91.51
2022-11-20T16:37:23.866Z,91.71
2022-11-20T16:39:57.193Z,91.45
2022-11-20T16:42:28.527Z,91.62
2022-11-20T16:44:59.777Z,91.83
2022-11-20T16:47:37.255Z,91.65
2022-11-20T16:50:08.932Z,91.65
2022-11-20T16:52:40.193Z,91.34
2022-11-20T16:55:11.585Z,91.31
2022-11-20T16:57:42.851Z,91.41
2022-11-20T17:00:14.752Z,90.75
2022-11-20T17:02:46.012Z,90.96
2022-11-20T17:05:17.286Z,90.26
2022-11-20T17:07:48.606Z,90.61
2022-11-20T17:10:20.871Z,90.49
2022-11-20T17:12:52.191Z,90.64
2022-11-20T17:15:23.500Z,90.80
2022-11-20T17:17:55.225Z,90.21
2022-11-20T17:20:26.530Z,90.71
2022-11-20T17:22:57.810Z,90.92
2022-11-20T17:25:32.496Z,90.27
2022-11-20T17:28:03.911Z,90.31
2022-11-20T17:30:35.233Z,90.34
2022-11-20T17:33:06.558Z,90.68
2022-11-20T17:35:37.865Z,91.27
2022-11-20T17:38:09.140Z,91.30
2022-11-20T17:40:40.388Z,90.87
2022-11-20T17:43:11.701Z,91.58
2022-11-20T17:45:43.135Z,92.00
2022-11-20T17:48:14.460Z,92.11
2022-11-20T17:50:45.713Z,91.66
2022-11-20T17:53:17.087Z,92.38
2022-11-20T17:56:16.526Z,92.29
2022-11-20T17:58:48.012Z,92.30
2022-11-20T18:01:19.639Z,92.06
2022-11-20T18:03:51.732Z,91.89
2022-11-20T18:06:25.033Z,91.94
2022-11-20T18:08:58.815Z,91.42
2022-11-20T18:11:35.310Z,91.83
2022-11-20T18:14:29.091Z,91.20
2022-11-20T18:17:13.724Z,90.89
2022-11-20T18:20:13.706Z,91.56
2022-11-20T18:22:38.854Z,91.42
2022-11-20T18:25:10.452Z,91.61
2022-11-20T18:27:41.811Z,91.58
2022-11-20T18:30:13.822Z,91.85
2022-11-20T18:32:45.241Z,91.88
2022-11-20T18:35:16.583Z,92.12
2022-11-20T18:37:47.967Z,92.22
2022-11-20T18:40:19.432Z,91.96
2022-11-20T18:43:09.067Z,91.87
2022-11-20T18:45:40.353Z,91.50
2022-11-20T18:48:11.720Z,92.33
2022-11-20T18:50:43.227Z,92.25
2022-11-20T18:53:14.530Z,92.02
2022-11-20T18:55:45.872Z,92.30
2022-11-20T18:58:17.269Z,91.63
2022-11-20T19:00:48.537Z,92.31
2022-11-20T19:03:20.131Z,91.87
2022-11-20T19:05:51.407Z,91.80
2022-11-20T19:08:22.812Z,92.22
2022-11-20T19:10:54.137Z,92.63
2022-11-20T19:13:26.441Z,91.50
2022-11-20T19:16:05.586Z,91.70
2022-11-20T19:18:36.949Z,91.16
2022-11-20T19:21:10.272Z,91.61
2022-11-20T19:23:41.804Z,91.58
2022-11-20T19:26:13.046Z,90.97
2022-11-20T19:28:44.473Z,91.50
2022-11-20T19:31:21.613Z,91.09
2022-11-20T19:34:01.315Z,91.45
2022-11-20T19:36:38.070Z,91.10
2022-11-20T19:39:12.179Z,91.56
2022-11-20T19:41:43.696Z,91.75
2022-11-20T19:44:17.374Z,91.54
2022-11-20T19:46:50.745Z,91.35
2022-11-20T19:49:22.388Z,92.03
2022-11-20T19:51:53.983Z,91.21
2022-11-20T19:54:25.385Z,91.36
2022-11-20T19:56:56.756Z,91.42
2022-11-20T19:59:28.299Z,91.33
2022-11-20T20:02:02.008Z,91.14
2022-11-20T20:04:33.459Z,91.35
2022-11-20T20:07:06.083Z,92.18
2022-11-20T20:09:37.489Z,92.05
2022-11-20T20:12:08.796Z,91.97
2022-11-20T20:14:40.095Z,92.19
2022-11-20T20:17:11.409Z,91.25
2022-11-20T20:19:42.759Z,91.25
2022-11-20T20:22:14.040Z,92.16
2022-11-20T20:24:45.340Z,91.33
2022-11-20T20:27:16.591Z,91.76
2022-11-20T20:29:47.861Z,92.01
2022-11-20T20:32:19.193Z,91.94
2022-11-20T20:34:50.656Z,92.20
2022-11-20T20:37:22.483Z,91.66
2022-11-20T20:39:54.613Z,91.88
2022-11-20T20:42:26.425Z,92.01
2022-11-20T20:45:08.619Z,91.71
2022-11-20T20:47:43.630Z,92.50
2022-11-20T20:50:15.678Z,91.83
2022-11-20T20:52:46.993Z,92.64
2022-11-20T20:55:18.494Z,92.02
2022-11-20T20:57:49.821Z,92.13
2022-11-20T21:00:21.315Z,92.21
2022-11-20T21:02:52.708Z,92.11
2022-11-20T21:05:24.105Z,92.23
2022-11-20T21:08:13.914Z,92.59
2022-11-20T21:10:45.288Z,92.15
2022-11-20T21:13:17.070Z,92.19
2022-11-20T21:15:50.527Z,92.20
2022-11-20T21:18:23.452Z,93.14
2022-11-20T21:21:14.262Z,93.08
2022-11-20T21:23:47.362Z,92.43
2022-11-20T21:26:19.652Z,93.04
2022-11-20T21:28:50.950Z,92.97
2022-11-20T21:31:27.036Z,92.19
2022-11-20T21:33:58.740Z,93.03
2022-11-20T21:36:31.313Z,93.01
2022-11-20T21:39:02.617Z,92.23
2022-11-20T21:41:34.108Z,93.05
2022-11-20T21:44:30.067Z,92.37
2022-11-20T21:46:58.726Z,93.06
2022-11-20T21:49:29.987Z,92.19
2022-11-20T21:52:01.273Z,92.37
2022-11-20T21:54:35.598Z,92.54
2022-11-20T21:57:06.891Z,91.96
2022-11-20T21:59:38.485Z,92.59
2022-11-20T22:02:13.093Z,91.75
2022-11-20T22:04:44.344Z,91.74
2022-11-20T22:07:15.701Z,91.58
2022-11-20T22:09:46.972Z,92.46
2022-11-20T22:12:18.331Z,92.26
2022-11-20T22:14:49.593Z,92.21
2022-11-20T22:17:40.834Z,92.31
2022-11-20T22:20:12.130Z,91.41
2022-11-20T22:22:43.900Z,91.93
2022-11-20T22:25:16.140Z,91.04
2022-11-20T22:27:48.216Z,91.64
2022-11-20T22:30:21.108Z,91.49
2022-11-20T22:32:56.417Z,91.04
2022-11-20T22:35:27.744Z,91.39
2022-11-20T22:37:59.061Z,90.74
2022-11-20T22:40:31.977Z,90.99
2022-11-20T22:43:03.303Z,90.65
2022-11-20T22:45:34.535Z,90.68
2022-11-20T22:48:06.560Z,90.42
2022-11-20T22:50:37.844Z,90.73
2022-11-20T22:53:09.874Z,91.06
2022-11-20T22:55:41.429Z,90.59
2022-11-20T22:58:12.696Z,90.19
2022-11-20T23:00:43.954Z,90.32
2022-11-20T23:03:15.258Z,90.07
2022-11-20T23:05:46.550Z,90.51
2022-11-20T23:08:17.790Z,90.01
2022-11-20T23:10:49.025Z,90.13
2022-11-20T23:13:20.275Z,90.08
2022-11-20T23:15:51.546Z,90.35
2022-11-20T23:18:23.028Z,90.13
2022-11-20T23:20:54.442Z,90.19
2022-11-20T23:23:25.743Z,90.42
2022-11-20T23:26:00.650Z,90.50
2022-11-20T23:28:32.012Z,91.02
2022-11-20T23:31:04.341Z,90.51
2022-11-20T23:33:36.524Z,90.93
2022-11-20T23:36:08.326Z,91.01
2022-11-20T23:38:40.384Z,90.69
2022-11-20T23:41:12.198Z,90.25
2022-11-20T23:43:43.834Z,90.38
2022-11-20T23:46:16.683Z,90.52
2022-11-20T23:48:48.540Z,90.30
2022-11-20T23:51:19.812Z,91.13
2022-11-20T23:53:51.098Z,90.86
2022-11-20T23:56:22.346Z,90.79
2022-11-20T23:58:53.667Z,91.31
